createdAt,value
2022-11-27T00:01:48.958Z,147.45
2022-11-27T00:03:50.941Z,154.63
2022-11-27T00:05:57.455Z,147.75
2022-11-27T00:07:59.094Z,158.30
2022-11-27T00:10:00.604Z,143.20
2022-11-27T00:12:02.058Z,151.57
2022-11-27T00:14:03.536Z,168.35
2022-11-27T00:16:06.487Z,151.15
2022-11-27T00:18:08.110Z,140.82
2022-11-27T00:20:09.786Z,155.40
2022-11-27T00:22:11.255Z,142.60
2022-11-27T00:24:13.042Z,130.40
2022-11-27T00:26:14.955Z,136.48
2022-11-27T00:28:16.385Z,172.27
2022-11-27T00:30:18.650Z,147.07
2022-11-27T00:32:20.183Z,133.70
2022-11-27T00:34:22.265Z,153.63
2022-11-27T00:36:24.642Z,148.38
2022-11-27T00:38:26.091Z,159.10
2022-11-27T00:40:27.580Z,172.00
2022-11-27T00:42:29.019Z,285.17
2022-11-27T00:44:30.641Z,330.42
2022-11-27T00:46:34.364Z,245.55
2022-11-27T00:48:36.075Z,211.55
2022-11-27T00:50:37.531Z,156.38
2022-11-27T00:52:39.087Z,187.30
2022-11-27T00:54:40.727Z,175.32
2022-11-27T00:56:42.362Z,157.82
2022-11-27T00:58:44.308Z,156.57
2022-11-27T01:00:45.738Z,145.77
2022-11-27T01:02:47.268Z,136.23
2022-11-27T01:04:49.073Z,139.10
2022-11-27T01:06:50.599Z,172.30
2022-11-27T01:08:52.107Z,161.32
2022-11-27T01:10:57.634Z,144.85
2022-11-27T01:12:59.059Z,151.90
2022-11-27T01:15:00.561Z,158.80
2022-11-27T01:17:02.076Z,152.60
2022-11-27T01:19:04.297Z,143.38
2022-11-27T01:21:06.275Z,140.18
2022-11-27T01:23:07.796Z,145.38
2022-11-27T01:25:09.470Z,139.18
2022-11-27T01:27:10.915Z,149.43
2022-11-27T01:29:12.625Z,149.80
2022-11-27T01:31:20.090Z,168.63
2022-11-27T01:33:21.654Z,149.55
2022-11-27T01:35:23.382Z,165.52
2022-11-27T01:37:24.856Z,158.38
2022-11-27T01:39:26.315Z,215.10
2022-11-27T01:41:31.222Z,156.68
2022-11-27T01:43:42.076Z,150.55
2022-11-27T01:45:45.415Z,150.95
2022-11-27T01:48:00.899Z,155.60
2022-11-27T01:50:26.031Z,156.18
2022-11-27T01:52:35.069Z,150.98
2022-11-27T01:54:45.506Z,157.43
2022-11-27T01:56:50.170Z,166.85
2022-11-27T01:58:52.226Z,153.25
2022-11-27T02:00:53.773Z,149.02
2022-11-27T02:02:55.329Z,147.35
2022-11-27T02:04:56.878Z,153.02
2022-11-27T02:06:59.960Z,155.80
2022-11-27T02:09:01.589Z,150.05
2022-11-27T02:11:09.154Z,150.55
2022-11-27T02:13:20.576Z,151.35
2022-11-27T02:15:34.335Z,134.57
2022-11-27T02:18:08.207Z,176.77
2022-11-27T02:20:34.289Z,152.18
2022-11-27T02:22:48.579Z,138.68
2022-11-27T02:25:07.996Z,142.02
2022-11-27T02:27:28.018Z,149.82
2022-11-27T02:29:33.101Z,137.13
2022-11-27T02:31:46.458Z,146.70
2022-11-27T02:33:54.367Z,137.73
2022-11-27T02:36:11.682Z,155.23
2022-11-27T02:38:25.534Z,149.32
2022-11-27T02:40:57.092Z,164.27
2022-11-27T02:43:19.282Z,148.90
2022-11-27T02:45:27.812Z,142.63
2022-11-27T02:47:30.728Z,143.32
2022-11-27T02:49:36.087Z,144.18
2022-11-27T02:51:45.600Z,141.80
2022-11-27T02:53:52.070Z,146.20
2022-11-27T02:55:54.024Z,156.65
2022-11-27T02:57:57.402Z,168.65
2022-11-27T03:00:00.313Z,135.02
2022-11-27T03:02:06.800Z,137.98
2022-11-27T03:04:13.023Z,130.07
2022-11-27T03:06:32.984Z,122.78
2022-11-27T03:08:45.627Z,123.65
2022-11-27T03:11:08.234Z,124.50
2022-11-27T03:13:09.940Z,129.48
2022-11-27T03:15:12.280Z,117.18
2022-11-27T03:17:33.500Z,110.65
2022-11-27T03:19:45.957Z,121.53
2022-11-27T03:22:00.746Z,114.95
2022-11-27T03:24:02.472Z,135.60
2022-11-27T03:26:04.020Z,137.80
2022-11-27T03:28:09.628Z,153.68
2022-11-27T03:30:12.288Z,147.27
2022-11-27T03:32:14.411Z,141.13
2022-11-27T03:34:19.140Z,144.30
2022-11-27T03:36:21.898Z,137.70
2022-11-27T03:38:23.441Z,148.55
2022-11-27T03:40:55.115Z,160.90
2022-11-27T03:43:23.069Z,153.65
2022-11-27T03:45:46.151Z,150.20
2022-11-27T03:47:55.125Z,170.68
2022-11-27T03:50:19.864Z,160.07
2022-11-27T03:52:39.062Z,156.02
2022-11-27T03:54:53.348Z,154.65
2022-11-27T03:57:15.082Z,166.60
2022-11-27T03:59:34.181Z,160.43
2022-11-27T04:01:36.385Z,205.52
2022-11-27T04:03:38.488Z,208.23
2022-11-27T04:05:40.097Z,188.52
2022-11-27T04:07:42.357Z,179.30
2022-11-27T04:09:43.920Z,168.60
2022-11-27T04:11:45.481Z,160.00
2022-11-27T04:13:46.940Z,142.55
2022-11-27T04:15:48.521Z,158.20
2022-11-27T04:17:49.996Z,134.68
2022-11-27T04:19:51.509Z,128.95
2022-11-27T04:21:52.950Z,128.70
2022-11-27T04:23:54.456Z,145.55
2022-11-27T04:25:55.893Z,155.75
2022-11-27T04:27:57.536Z,149.95
2022-11-27T04:29:59.039Z,160.40
2022-11-27T04:32:00.449Z,147.55
2022-11-27T04:34:01.917Z,145.45
2022-11-27T04:36:03.635Z,149.43
2022-11-27T04:38:05.114Z,183.70
2022-11-27T04:40:07.254Z,175.88
2022-11-27T04:42:08.813Z,176.25
2022-11-27T04:44:11.517Z,172.02
2022-11-27T04:46:12.983Z,157.43
2022-11-27T04:48:14.705Z,154.45
2022-11-27T04:50:16.184Z,179.18
2022-11-27T04:52:17.665Z,177.48
2022-11-27T04:54:19.088Z,208.05
2022-11-27T04:56:20.579Z,194.15
2022-11-27T04:58:22.118Z,183.52
2022-11-27T05:00:23.723Z,183.80
2022-11-27T05:02:25.216Z,173.60
2022-11-27T05:04:26.817Z,160.48
2022-11-27T05:06:28.342Z,164.40
2022-11-27T05:08:31.573Z,160.75
2022-11-27T05:10:33.101Z,181.32
2022-11-27T05:12:34.537Z,270.27
2022-11-27T05:14:35.986Z,187.93
2022-11-27T05:16:37.518Z,149.05
2022-11-27T05:18:39.024Z,152.13
2022-11-27T05:20:40.497Z,135.07
2022-11-27T05:22:41.936Z,144.20
2022-11-27T05:24:43.496Z,140.57
2022-11-27T05:26:45.269Z,139.45
2022-11-27T05:28:46.807Z,123.53
2022-11-27T05:30:48.996Z,133.70
2022-11-27T05:32:50.434Z,134.68
2022-11-27T05:34:51.964Z,371.73
2022-11-27T05:36:53.454Z,378.15
2022-11-27T05:38:54.991Z,232.85
2022-11-27T05:40:57.175Z,141.15
2022-11-27T05:42:58.619Z,145.25
2022-11-27T05:45:00.159Z,141.20
2022-11-27T05:47:01.724Z,133.45
2022-11-27T05:49:03.286Z,131.38
2022-11-27T05:51:05.273Z,123.75
2022-11-27T05:53:06.792Z,121.90
2022-11-27T05:55:08.755Z,201.38
2022-11-27T05:57:10.213Z,173.35
2022-11-27T05:59:12.610Z,176.90
2022-11-27T06:01:16.222Z,189.15
2022-11-27T06:03:17.816Z,165.55
2022-11-27T06:05:19.325Z,194.93
2022-11-27T06:07:20.810Z,149.30
2022-11-27T06:09:22.296Z,155.00
2022-11-27T06:11:23.843Z,166.80
2022-11-27T06:13:25.410Z,174.93
2022-11-27T06:15:26.973Z,165.75
2022-11-27T06:17:28.508Z,142.27
2022-11-27T06:19:30.249Z,169.43
2022-11-27T06:21:31.817Z,200.38
2022-11-27T06:23:33.639Z,212.77
2022-11-27T06:25:35.051Z,176.52
2022-11-27T06:27:36.772Z,155.52
2022-11-27T06:29:38.352Z,178.40
2022-11-27T06:31:40.095Z,179.90
2022-11-27T06:33:41.899Z,194.93
2022-11-27T06:35:43.370Z,182.73
2022-11-27T06:37:44.863Z,180.43
2022-11-27T06:39:48.450Z,159.80
2022-11-27T06:41:50.030Z,183.13
2022-11-27T06:43:51.499Z,178.77
2022-11-27T06:45:57.773Z,174.68
2022-11-27T06:47:59.283Z,178.98
2022-11-27T06:50:10.282Z,168.10
2022-11-27T06:52:23.409Z,215.65
2022-11-27T06:54:40.128Z,247.95
2022-11-27T06:56:53.844Z,404.00
2022-11-27T06:59:11.778Z,270.70
2022-11-27T07:01:24.643Z,155.20
2022-11-27T07:03:31.630Z,141.90
2022-11-27T07:05:33.147Z,136.13
2022-11-27T07:07:36.034Z,117.35
2022-11-27T07:09:40.029Z,131.45
2022-11-27T07:11:41.557Z,142.32
2022-11-27T07:13:50.779Z,208.93
2022-11-27T07:16:11.559Z,139.25
2022-11-27T07:18:16.613Z,118.38
2022-11-27T07:20:18.670Z,103.85
2022-11-27T07:22:20.100Z,106.03
2022-11-27T07:24:21.734Z,95.90
2022-11-27T07:26:28.759Z,100.70
2022-11-27T07:28:30.228Z,135.85
2022-11-27T07:30:44.485Z,132.57
2022-11-27T07:33:01.213Z,99.35
2022-11-27T07:35:11.799Z,102.90
2022-11-27T07:37:14.585Z,111.45
2022-11-27T07:39:25.206Z,125.50
2022-11-27T07:41:35.713Z,105.03
2022-11-27T07:43:37.897Z,113.05
2022-11-27T07:45:39.444Z,145.73
2022-11-27T07:47:40.980Z,106.90
2022-11-27T07:49:50.184Z,91.55
2022-11-27T07:52:19.383Z,88.32
2022-11-27T07:54:20.910Z,81.57
2022-11-27T07:56:34.692Z,92.47
2022-11-27T07:58:40.917Z,249.75
2022-11-27T08:00:42.644Z,443.38
2022-11-27T08:02:44.150Z,138.15
2022-11-27T08:04:45.870Z,93.28
2022-11-27T08:06:49.038Z,90.93
2022-11-27T08:09:08.783Z,90.43
2022-11-27T08:11:22.198Z,231.63
2022-11-27T08:13:30.074Z,88.75
2022-11-27T08:15:32.617Z,142.15
2022-11-27T08:17:34.175Z,228.32
2022-11-27T08:19:35.784Z,95.65
2022-11-27T08:21:37.352Z,113.60
2022-11-27T08:23:38.879Z,111.97
2022-11-27T08:25:45.780Z,81.13
2022-11-27T08:27:48.479Z,99.20
2022-11-27T08:29:49.955Z,97.60
2022-11-27T08:31:51.425Z,105.00
2022-11-27T08:33:52.917Z,118.80
2022-11-27T08:36:00.946Z,72.05
2022-11-27T08:38:02.745Z,95.95
2022-11-27T08:40:05.490Z,156.13
2022-11-27T08:42:06.999Z,76.07
2022-11-27T08:44:09.553Z,92.22
2022-11-27T08:46:11.528Z,99.80
2022-11-27T08:48:24.359Z,117.72
2022-11-27T08:50:29.199Z,112.30
2022-11-27T08:52:31.864Z,103.75
2022-11-27T08:54:33.341Z,100.22
2022-11-27T08:56:36.103Z,103.38
2022-11-27T08:58:37.695Z,111.95
2022-11-27T09:00:47.994Z,105.75
2022-11-27T09:03:03.158Z,72.50
2022-11-27T09:05:09.024Z,71.93
2022-11-27T09:07:14.277Z,70.07
2022-11-27T09:09:16.358Z,76.80
2022-11-27T09:11:19.519Z,110.15
2022-11-27T09:13:20.955Z,149.20
2022-11-27T09:15:27.060Z,135.32
2022-11-27T09:17:40.775Z,94.60
2022-11-27T09:19:43.040Z,75.25
2022-11-27T09:21:44.508Z,79.00
2022-11-27T09:23:47.389Z,84.75
2022-11-27T09:25:49.693Z,115.55
2022-11-27T09:27:51.338Z,121.47
2022-11-27T09:30:05.833Z,121.25
2022-11-27T09:32:12.052Z,99.63
2022-11-27T09:34:14.614Z,74.47
2022-11-27T09:36:21.652Z,114.82
2022-11-27T09:38:26.530Z,82.85
2022-11-27T09:40:28.154Z,116.82
2022-11-27T09:42:59.226Z,111.55
2022-11-27T09:45:00.888Z,125.43
2022-11-27T09:47:12.350Z,150.68
2022-11-27T09:49:22.711Z,94.05
2022-11-27T09:51:43.246Z,75.82
2022-11-27T09:54:04.668Z,82.55
2022-11-27T09:56:09.756Z,134.48
2022-11-27T09:58:29.938Z,123.53
2022-11-27T10:00:31.440Z,203.82
2022-11-27T10:02:44.482Z,154.27
2022-11-27T10:05:17.603Z,90.60
2022-11-27T10:07:47.069Z,60.92
2022-11-27T10:09:56.298Z,65.63
2022-11-27T10:12:09.209Z,52.92
2022-11-27T10:14:58.091Z,171.65
2022-11-27T10:17:17.306Z,78.75
2022-11-27T10:20:10.939Z,88.93
2022-11-27T10:22:21.083Z,110.43
2022-11-27T10:24:36.778Z,115.88
2022-11-27T10:26:41.591Z,104.32
2022-11-27T10:29:00.921Z,157.05
2022-11-27T10:31:08.235Z,248.82
2022-11-27T10:33:20.244Z,119.38
2022-11-27T10:35:30.464Z,103.07
2022-11-27T10:37:49.000Z,80.70
2022-11-27T10:40:01.238Z,75.65
2022-11-27T10:42:32.859Z,88.10
2022-11-27T10:44:58.042Z,80.47
2022-11-27T10:47:05.811Z,126.05
2022-11-27T10:49:07.303Z,136.55
2022-11-27T10:51:18.978Z,139.43
2022-11-27T10:53:35.325Z,189.68
2022-11-27T10:56:15.172Z,171.45
2022-11-27T10:58:25.622Z,186.88
2022-11-27T11:00:28.795Z,126.45
2022-11-27T11:02:40.097Z,107.38
2022-11-27T11:04:42.859Z,87.75
2022-11-27T11:06:50.314Z,83.13
2022-11-27T11:09:39.226Z,67.88
2022-11-27T11:11:41.064Z,68.43
2022-11-27T11:13:47.230Z,94.18
2022-11-27T11:16:32.012Z,123.72
2022-11-27T11:18:49.224Z,128.77
2022-11-27T11:20:54.707Z,75.95
2022-11-27T11:22:56.168Z,73.53
2022-11-27T11:24:59.418Z,81.53
2022-11-27T11:27:23.374Z,72.10
2022-11-27T11:29:40.741Z,77.07
2022-11-27T11:31:45.376Z,72.65
2022-11-27T11:33:59.912Z,61.55
2022-11-27T11:36:11.552Z,52.35
2022-11-27T11:38:31.603Z,51.38
2022-11-27T11:40:48.796Z,76.65
2022-11-27T11:43:23.476Z,45.95
2022-11-27T11:45:31.245Z,113.88
2022-11-27T11:47:34.438Z,61.13
2022-11-27T11:49:41.432Z,52.50
2022-11-27T11:52:01.765Z,40.75
2022-11-27T11:54:26.420Z,42.58
2022-11-27T11:56:37.723Z,48.28
2022-11-27T11:58:56.014Z,42.83
2022-11-27T12:01:43.529Z,46.42
2022-11-27T12:04:15.520Z,66.18
2022-11-27T12:06:41.150Z,48.22
2022-11-27T12:09:03.915Z,42.28
2022-11-27T12:11:16.977Z,36.53
2022-11-27T12:13:39.450Z,37.67
2022-11-27T12:15:49.985Z,45.55
2022-11-27T12:18:10.039Z,44.60
2022-11-27T12:20:21.877Z,36.20
2022-11-27T12:22:48.608Z,38.38
2022-11-27T12:25:28.629Z,41.33
2022-11-27T12:28:06.077Z,34.83
2022-11-27T12:30:22.998Z,35.50
2022-11-27T12:32:50.805Z,36.28
2022-11-27T12:35:23.140Z,33.08
2022-11-27T12:37:35.997Z,41.70
2022-11-27T12:39:59.152Z,34.67
2022-11-27T12:42:10.085Z,58.70
2022-11-27T12:44:57.471Z,44.88
2022-11-27T12:47:11.691Z,62.75
2022-11-27T12:49:29.864Z,112.15
2022-11-27T12:51:55.196Z,55.17
2022-11-27T12:54:19.893Z,42.22
2022-11-27T12:56:24.676Z,32.85
2022-11-27T12:58:33.379Z,32.80
2022-11-27T13:00:44.056Z,58.08
2022-11-27T13:03:01.136Z,51.17
2022-11-27T13:05:14.235Z,31.80
2022-11-27T13:07:30.789Z,61.33
2022-11-27T13:09:56.850Z,80.63
2022-11-27T13:12:01.398Z,44.22
2022-11-27T13:14:16.672Z,48.70
2022-11-27T13:16:27.622Z,62.97
2022-11-27T13:18:51.886Z,69.95
2022-11-27T13:21:01.559Z,59.45
2022-11-27T13:23:03.147Z,49.08
2022-11-27T13:25:05.356Z,41.92
2022-11-27T13:27:17.083Z,73.90
2022-11-27T13:29:28.918Z,65.10
2022-11-27T13:31:35.952Z,39.88
2022-11-27T13:33:41.861Z,58.25
2022-11-27T13:35:43.522Z,155.82
2022-11-27T13:37:59.752Z,247.80
2022-11-27T13:40:13.442Z,85.55
2022-11-27T13:42:23.738Z,62.72
2022-11-27T13:44:30.370Z,54.72
2022-11-27T13:46:43.732Z,59.78
2022-11-27T13:49:10.769Z,54.03
2022-11-27T13:51:24.120Z,55.42
2022-11-27T13:53:38.505Z,46.40
2022-11-27T13:56:08.494Z,57.03
2022-11-27T13:58:13.117Z,69.93
2022-11-27T14:00:42.458Z,78.97
2022-11-27T14:02:49.484Z,74.35
2022-11-27T14:04:56.624Z,71.05
2022-11-27T14:07:11.730Z,81.05
2022-11-27T14:09:31.560Z,91.07
2022-11-27T14:13:58.678Z,134.45
2022-11-27T14:16:06.136Z,104.93
2022-11-27T14:18:15.535Z,107.57
2022-11-27T14:20:17.120Z,78.57
2022-11-27T14:23:10.667Z,138.32
2022-11-27T14:25:32.036Z,76.95
2022-11-27T14:27:35.706Z,65.07
2022-11-27T14:29:37.195Z,90.30
2022-11-27T14:31:38.727Z,76.53
2022-11-27T14:34:07.332Z,160.93
2022-11-27T14:36:07.274Z,94.88
2022-11-27T14:38:15.404Z,116.20
2022-11-27T14:40:26.695Z,73.15
2022-11-27T14:42:30.663Z,66.43
2022-11-27T14:44:35.006Z,75.53
2022-11-27T14:46:37.699Z,87.80
2022-11-27T14:48:49.954Z,93.57
2022-11-27T14:50:53.183Z,93.55
2022-11-27T14:52:56.415Z,111.80
2022-11-27T14:54:59.368Z,120.75
2022-11-27T14:57:02.104Z,102.60
2022-11-27T14:59:04.291Z,91.22
2022-11-27T15:01:07.491Z,98.25
2022-11-27T15:03:10.879Z,98.97
2022-11-27T15:05:29.097Z,96.28
2022-11-27T15:07:34.400Z,113.07
2022-11-27T15:09:45.515Z,119.57
2022-11-27T15:12:13.418Z,151.02
2022-11-27T15:14:16.733Z,284.42
2022-11-27T15:16:22.576Z,205.85
2022-11-27T15:18:25.120Z,110.38
2022-11-27T15:20:44.995Z,113.13
2022-11-27T15:22:55.117Z,179.65
2022-11-27T15:25:02.175Z,215.07
2022-11-27T15:27:21.762Z,164.63
2022-11-27T15:31:38.480Z,117.07
2022-11-27T15:33:39.973Z,104.85
2022-11-27T15:35:41.421Z,114.25
2022-11-27T15:37:43.076Z,104.60
2022-11-27T15:39:52.817Z,120.15
2022-11-27T15:43:57.373Z,186.82
2022-11-27T15:45:59.123Z,291.65
2022-11-27T15:48:01.625Z,126.25
2022-11-27T15:50:05.271Z,206.82
2022-11-27T15:52:06.981Z,264.27
2022-11-27T15:54:08.806Z,173.40
2022-11-27T15:56:10.347Z,127.63
2022-11-27T15:58:11.913Z,123.32
2022-11-27T16:00:14.098Z,128.27
2022-11-27T16:02:18.045Z,131.48
2022-11-27T16:04:20.704Z,132.30
2022-11-27T16:06:24.674Z,166.60
2022-11-27T16:08:26.124Z,192.30
2022-11-27T16:10:27.682Z,162.75
2022-11-27T16:12:29.242Z,221.30
2022-11-27T16:14:30.735Z,237.77
2022-11-27T16:16:32.653Z,211.35
2022-11-27T16:18:35.106Z,190.02
2022-11-27T16:20:36.800Z,189.10
2022-11-27T16:22:38.246Z,193.57
2022-11-27T16:24:41.391Z,252.38
2022-11-27T16:26:43.056Z,195.32
2022-11-27T16:28:44.566Z,117.50
2022-11-27T16:30:46.008Z,232.75
2022-11-27T16:32:47.477Z,141.73
2022-11-27T16:34:50.430Z,480.42
2022-11-27T16:36:51.885Z,311.80
2022-11-27T16:38:54.712Z,263.90
2022-11-27T16:41:03.669Z,366.25
2022-11-27T16:43:05.219Z,363.17
2022-11-27T16:45:07.360Z,177.85
2022-11-27T16:47:08.761Z,194.43
2022-11-27T16:49:11.222Z,229.27
2022-11-27T16:51:21.719Z,306.98
2022-11-27T16:53:23.219Z,209.00
2022-11-27T16:55:25.755Z,211.02
2022-11-27T16:57:27.256Z,173.73
2022-11-27T16:59:28.855Z,293.85
2022-11-27T17:01:34.570Z,245.55
2022-11-27T17:03:37.140Z,256.15
2022-11-27T17:05:38.793Z,233.02
2022-11-27T17:07:40.976Z,144.95
2022-11-27T17:09:42.490Z,162.20
2022-11-27T17:11:48.653Z,138.57
2022-11-27T17:13:51.696Z,203.38
2022-11-27T17:15:53.108Z,138.93
2022-11-27T17:17:57.603Z,205.18
2022-11-27T17:20:00.778Z,495.13
2022-11-27T17:22:02.450Z,553.95
2022-11-27T17:24:11.615Z,443.85
2022-11-27T17:26:19.251Z,266.98
2022-11-27T17:28:20.739Z,198.63
2022-11-27T17:30:22.159Z,162.95
2022-11-27T17:32:24.993Z,168.23
2022-11-27T17:34:26.442Z,132.40
2022-11-27T17:36:33.791Z,148.48
2022-11-27T17:38:38.506Z,151.77
2022-11-27T17:40:40.114Z,151.32
2022-11-27T17:42:41.563Z,625.95
2022-11-27T17:44:43.110Z,446.98
2022-11-27T17:46:50.116Z,269.15
2022-11-27T17:48:52.331Z,177.80
2022-11-27T17:50:54.435Z,155.10
2022-11-27T17:52:55.918Z,239.25
2022-11-27T17:54:57.430Z,262.67
2022-11-27T17:56:58.891Z,214.05
2022-11-27T17:59:00.569Z,220.32
2022-11-27T18:01:02.469Z,266.17
2022-11-27T18:03:07.476Z,193.77
2022-11-27T18:05:09.551Z,171.23
2022-11-27T18:07:11.964Z,196.98
2022-11-27T18:09:13.533Z,364.17
2022-11-27T18:11:21.975Z,205.77
2022-11-27T18:13:26.305Z,161.05
2022-11-27T18:15:27.983Z,181.75
2022-11-27T18:17:29.535Z,156.75
2022-11-27T18:19:31.769Z,160.82
2022-11-27T18:21:33.384Z,161.02
2022-11-27T18:23:35.594Z,159.30
2022-11-27T18:25:43.607Z,162.43
2022-11-27T18:27:49.186Z,176.93
2022-11-27T18:29:50.701Z,249.90
2022-11-27T18:31:53.408Z,566.80
2022-11-27T18:33:58.732Z,301.80
2022-11-27T18:36:00.403Z,190.32
2022-11-27T18:38:01.934Z,238.98
2022-11-27T18:40:03.625Z,185.13
2022-11-27T18:42:06.462Z,152.07
2022-11-27T18:44:09.134Z,145.40
2022-11-27T18:46:14.777Z,128.80
2022-11-27T18:48:16.317Z,124.55
2022-11-27T18:50:17.814Z,122.93
2022-11-27T18:52:19.378Z,122.50
2022-11-27T18:54:21.853Z,127.88
2022-11-27T18:56:29.439Z,428.63
2022-11-27T18:58:35.014Z,410.73
2022-11-27T19:00:36.552Z,183.15
2022-11-27T19:02:38.108Z,150.65
2022-11-27T19:04:40.072Z,118.22
2022-11-27T19:06:42.648Z,111.75
2022-11-27T19:08:44.668Z,119.25
2022-11-27T19:10:46.169Z,109.80
2022-11-27T19:12:47.674Z,109.95
2022-11-27T19:14:49.174Z,113.80
2022-11-27T19:16:50.845Z,105.13
2022-11-27T19:18:52.722Z,117.15
2022-11-27T19:20:55.181Z,190.50
2022-11-27T19:22:56.728Z,335.20
2022-11-27T19:24:58.281Z,165.27
2022-11-27T19:27:00.024Z,209.98
2022-11-27T19:29:05.611Z,242.20
2022-11-27T19:31:09.286Z,180.07
2022-11-27T19:33:11.177Z,231.15
2022-11-27T19:35:12.613Z,213.13
2022-11-27T19:37:14.127Z,249.07
2022-11-27T19:39:15.889Z,550.63
2022-11-27T19:41:18.336Z,247.32
2022-11-27T19:43:19.871Z,193.55
2022-11-27T19:45:24.397Z,246.93
2022-11-27T19:47:25.891Z,198.38
2022-11-27T19:49:27.392Z,190.10
2022-11-27T19:51:33.237Z,170.35
2022-11-27T19:53:34.728Z,164.82
2022-11-27T19:55:36.186Z,183.25
2022-11-27T19:57:38.212Z,146.48
2022-11-27T19:59:40.426Z,253.13
2022-11-27T20:01:42.468Z,421.17
2022-11-27T20:03:44.832Z,525.72
2022-11-27T20:05:46.434Z,303.98
2022-11-27T20:07:48.574Z,213.68
2022-11-27T20:09:50.205Z,177.55
2022-11-27T20:11:51.710Z,147.68
2022-11-27T20:13:57.934Z,166.88
2022-11-27T20:15:59.582Z,148.02
2022-11-27T20:18:01.164Z,189.57
2022-11-27T20:20:02.653Z,146.93
2022-11-27T20:22:04.118Z,142.82
2022-11-27T20:24:06.015Z,161.27
2022-11-27T20:26:10.508Z,377.67
2022-11-27T20:28:12.048Z,298.15
2022-11-27T20:30:13.775Z,231.93
2022-11-27T20:32:15.268Z,256.75
2022-11-27T20:34:20.231Z,176.63
2022-11-27T20:36:23.545Z,173.88
2022-11-27T20:38:26.623Z,182.68
2022-11-27T20:40:28.469Z,214.27
2022-11-27T20:42:30.067Z,240.43
2022-11-27T20:44:31.562Z,180.80
2022-11-27T20:46:33.280Z,166.30
2022-11-27T20:48:35.271Z,178.05
2022-11-27T20:50:38.693Z,169.02
2022-11-27T20:52:40.283Z,124.90
2022-11-27T20:54:41.893Z,117.55
2022-11-27T20:56:45.879Z,198.35
2022-11-27T20:58:48.169Z,163.57
2022-11-27T21:00:49.784Z,140.57
2022-11-27T21:02:51.398Z,212.77
2022-11-27T21:04:53.083Z,164.13
2022-11-27T21:06:54.554Z,156.82
2022-11-27T21:08:56.269Z,203.13
2022-11-27T21:10:57.726Z,180.90
2022-11-27T21:12:59.409Z,154.18
2022-11-27T21:15:00.884Z,162.32
2022-11-27T21:17:05.017Z,205.70
2022-11-27T21:19:12.160Z,191.52
2022-11-27T21:21:14.410Z,200.25
2022-11-27T21:23:15.934Z,192.77
2022-11-27T21:25:20.455Z,141.70
2022-11-27T21:27:27.824Z,136.50
2022-11-27T21:29:29.364Z,136.73
2022-11-27T21:31:35.883Z,135.25
2022-11-27T21:33:38.933Z,130.40
2022-11-27T21:35:40.635Z,121.93
2022-11-27T21:37:43.263Z,125.50
2022-11-27T21:39:44.934Z,131.02
2022-11-27T21:41:51.889Z,106.50
2022-11-27T21:43:58.707Z,107.72
2022-11-27T21:46:20.160Z,113.88
2022-11-27T21:48:21.617Z,116.82
2022-11-27T21:50:23.058Z,120.30
2022-11-27T21:52:24.537Z,105.85
2022-11-27T21:54:26.057Z,87.38
2022-11-27T21:56:29.737Z,77.13
2022-11-27T21:58:34.178Z,77.78
2022-11-27T22:00:36.967Z,83.55
2022-11-27T22:02:38.539Z,84.22
2022-11-27T22:04:40.523Z,84.65
2022-11-27T22:06:45.032Z,90.05
2022-11-27T22:08:49.246Z,96.25
2022-11-27T22:10:50.967Z,100.13
2022-11-27T22:12:52.506Z,116.95
2022-11-27T22:14:53.995Z,100.72
2022-11-27T22:16:57.047Z,89.10
2022-11-27T22:18:59.692Z,89.05
2022-11-27T22:21:06.085Z,85.15
2022-11-27T22:23:07.625Z,88.90
2022-11-27T22:25:09.288Z,80.75
2022-11-27T22:27:10.734Z,81.82
2022-11-27T22:29:12.254Z,81.63
2022-11-27T22:31:16.675Z,88.38
2022-11-27T22:33:18.496Z,91.75
2022-11-27T22:35:20.444Z,88.05
2022-11-27T22:37:21.943Z,80.47
2022-11-27T22:39:23.465Z,71.07
2022-11-27T22:41:27.076Z,77.55
2022-11-27T22:43:28.539Z,87.93
2022-11-27T22:45:30.159Z,97.72
2022-11-27T22:47:31.665Z,85.90
2022-11-27T22:49:33.181Z,86.30
2022-11-27T22:51:36.123Z,83.70
2022-11-27T22:53:37.966Z,84.65
2022-11-27T22:55:39.425Z,87.78
2022-11-27T22:57:41.120Z,91.25
2022-11-27T22:59:42.558Z,90.68
2022-11-27T23:01:44.081Z,88.78
2022-11-27T23:03:45.892Z,94.65
2022-11-27T23:05:47.642Z,91.50
2022-11-27T23:07:49.239Z,94.25
2022-11-27T23:09:50.790Z,92.53
2022-11-27T23:11:52.857Z,78.03
2022-11-27T23:13:55.575Z,88.80
2022-11-27T23:15:57.073Z,87.47
2022-11-27T23:17:58.763Z,93.35
2022-11-27T23:20:00.282Z,101.03
2022-11-27T23:22:01.868Z,105.55
2022-11-27T23:24:04.638Z,96.38
2022-11-27T23:26:07.772Z,88.75
2022-11-27T23:28:09.408Z,89.10
2022-11-27T23:30:11.176Z,106.28
2022-11-27T23:32:12.644Z,96.13
2022-11-27T23:34:15.380Z,138.73
2022-11-27T23:36:17.051Z,115.60
2022-11-27T23:38:18.476Z,99.07
2022-11-27T23:40:20.108Z,89.78
2022-11-27T23:42:21.561Z,84.07
2022-11-27T23:44:23.017Z,82.15
2022-11-27T23:46:26.937Z,95.72
2022-11-27T23:48:28.391Z,80.65
2022-11-27T23:50:29.832Z,78.03
2022-11-27T23:52:31.316Z,91.22
2022-11-27T23:54:32.781Z,88.03
2022-11-27T23:56:34.351Z,80.85
2022-11-27T23:58:36.326Z,90.68
